Capetan Vassilis — C6S2085 — position and weather

sailwx.info

Track history (hours):
 
Tides and Currents Weather Stations Pressure Air Temp Water Temp Dewpoint Dewpoint Depression Visibility Wind Speed Wind Dir Waves Ship Positions

Capetan Vassilis

Last reported at 2016-Jun-26 04:11 UTC. Time now 2016-Jun-28 18:53 UTC.
Position N 35°48' W 028°15'.

Length 191 m; draft 11.2 m.

MMSI: 311552000.

Date/timePositionNaut miles runAvg speedWind from/ knotsBaromVisibWave heightAir tempDewpointWater temp
2016-Jun-26 04:11N 35°48' W 028°15'913.0
2016-Jun-26 03:28N 35°57' W 028°10'1213.0
2016-Jun-26 02:31N 36°08' W 028°03'1212.9
2016-Jun-26 01:33N 36°19' W 027°57'1313.0
2016-Jun-26 00:32N 36°31' W 027°50'1313.0
2016-Jun-25 23:32N 36°43' W 027°43'1313.1
2016-Jun-25 22:33N 36°55' W 027°36'1313.2
2016-Jun-25 21:33N 37°07' W 027°29'1313.0
2016-Jun-25 20:33N 37°18' W 027°22'1313.1
2016-Jun-25 19:34N 37°30' W 027°16'1312.8
2016-Jun-25 18:33N 37°42' W 027°09'1312.7
2016-Jun-25 17:33N 37°54' W 027°02'1313.3
2016-Jun-25 16:34N 38°06' W 026°55'1312.8
2016-Jun-25 15:33N 38°17' W 026°48'1312.6
2016-Jun-25 14:33N 38°29' W 026°41'1312.7
2016-Jun-25 13:33N 38°40' W 026°34'2013.1
2016-Jun-25 12:04N 38°58' W 026°23'913.0
2016-Jun-25 11:25N 39°05' W 026°19'1113.3
2016-Jun-25 10:33N 39°16' W 026°13'  
Track history (hours):
 
Tides and Currents Weather Stations Pressure Air Temp Water Temp Dewpoint Dewpoint Depression Visibility Wind Speed Wind Dir Waves Ship Positions

Capetan Vassilis

Last reported at 2016-Jun-26 04:11 UTC. Time now 2016-Jun-28 18:53 UTC.
Position N 35°48' W 028°15'.

Length 191 m; draft 11.2 m.

MMSI: 311552000.

Date/timePositionNaut miles runAvg speedWind from/ knotsBaromVisibWave heightAir tempDewpointWater temp
2016-Jun-26 04:11N 35°48' W 028°15'913.0
2016-Jun-26 03:28N 35°57' W 028°10'1213.0
2016-Jun-26 02:31N 36°08' W 028°03'1212.9
2016-Jun-26 01:33N 36°19' W 027°57'1313.0
2016-Jun-26 00:32N 36°31' W 027°50'1313.0
2016-Jun-25 23:32N 36°43' W 027°43'1313.1
2016-Jun-25 22:33N 36°55' W 027°36'1313.2
2016-Jun-25 21:33N 37°07' W 027°29'1313.0
2016-Jun-25 20:33N 37°18' W 027°22'1313.1
2016-Jun-25 19:34N 37°30' W 027°16'1312.8
2016-Jun-25 18:33N 37°42' W 027°09'1312.7
2016-Jun-25 17:33N 37°54' W 027°02'1313.3
2016-Jun-25 16:34N 38°06' W 026°55'1312.8
2016-Jun-25 15:33N 38°17' W 026°48'1312.6
2016-Jun-25 14:33N 38°29' W 026°41'1312.7
2016-Jun-25 13:33N 38°40' W 026°34'2013.1
2016-Jun-25 12:04N 38°58' W 026°23'913.0
2016-Jun-25 11:25N 39°05' W 026°19'1113.3
2016-Jun-25 10:33N 39°16' W 026°13'  

Dump ship's entire track history